createdAt,value
2018-12-03T00:01:31.679Z,1.60
2018-12-03T00:04:09.705Z,1.70
2018-12-03T00:06:38.657Z,1.60
2018-12-03T00:09:08.904Z,1.60
2018-12-03T00:11:38.225Z,1.50
2018-12-03T00:14:07.271Z,1.50
2018-12-03T00:16:36.151Z,1.50
2018-12-03T00:19:05.319Z,1.50
2018-12-03T00:21:34.270Z,1.50
2018-12-03T00:24:03.295Z,1.50
2018-12-03T00:26:32.255Z,1.50
2018-12-03T00:29:01.209Z,1.50
2018-12-03T00:31:30.141Z,1.40
2018-12-03T00:33:59.060Z,1.40
2018-12-03T00:36:27.988Z,1.40
2018-12-03T00:38:57.038Z,1.40
2018-12-03T00:41:26.812Z,1.50
2018-12-03T00:43:55.814Z,1.50
2018-12-03T00:46:24.736Z,1.40
2018-12-03T00:48:53.664Z,1.40
2018-12-03T00:51:22.567Z,1.40
2018-12-03T00:53:51.462Z,1.40
2018-12-03T00:56:20.343Z,1.30
2018-12-03T00:58:49.297Z,1.40
2018-12-03T01:01:18.217Z,1.30
2018-12-03T01:03:47.152Z,1.30
2018-12-03T01:06:16.212Z,1.40
2018-12-03T01:08:45.118Z,1.40
2018-12-03T01:11:14.090Z,1.40
2018-12-03T01:13:43.391Z,1.40
2018-12-03T01:16:13.107Z,1.40
2018-12-03T01:18:41.986Z,1.40
2018-12-03T01:21:10.930Z,1.40
2018-12-03T01:23:39.820Z,1.50
2018-12-03T01:26:08.685Z,1.60
2018-12-03T01:28:37.622Z,1.50
2018-12-03T01:31:06.578Z,1.60
2018-12-03T01:33:35.754Z,1.60
2018-12-03T01:36:04.672Z,1.60
2018-12-03T01:38:33.574Z,1.60
2018-12-03T01:41:02.504Z,1.60
2018-12-03T01:43:31.428Z,1.60
2018-12-03T01:46:00.298Z,1.60
2018-12-03T01:48:29.214Z,1.60
2018-12-03T01:50:58.110Z,1.60
2018-12-03T01:53:26.995Z,1.60
2018-12-03T01:55:55.914Z,1.70
2018-12-03T01:58:24.800Z,1.70
2018-12-03T02:00:53.718Z,1.60
2018-12-03T02:03:22.623Z,1.70
2018-12-03T02:05:51.633Z,1.80
2018-12-03T02:08:20.586Z,1.70
2018-12-03T02:10:49.523Z,1.80
2018-12-03T02:13:18.403Z,1.70
2018-12-03T02:15:47.323Z,1.80
2018-12-03T02:18:16.187Z,1.70
2018-12-03T02:20:45.458Z,1.70
2018-12-03T02:23:15.337Z,1.70
2018-12-03T02:25:44.217Z,1.80
2018-12-03T02:28:13.130Z,1.70
2018-12-03T02:30:42.004Z,1.70
2018-12-03T02:33:10.904Z,1.70
2018-12-03T02:35:39.820Z,1.70
2018-12-03T02:38:08.761Z,1.80
2018-12-03T02:40:37.639Z,1.80
2018-12-03T02:43:07.054Z,1.90
2018-12-03T02:45:36.044Z,1.90
2018-12-03T02:48:05.063Z,1.90
2018-12-03T02:50:33.984Z,1.90
2018-12-03T02:53:02.904Z,2.00
2018-12-03T02:55:31.776Z,2.00
2018-12-03T02:58:00.685Z,2.00
2018-12-03T03:00:29.575Z,2.00
2018-12-03T03:02:58.536Z,2.00
2018-12-03T03:05:27.428Z,2.00
2018-12-03T03:07:56.364Z,2.00
2018-12-03T03:10:25.297Z,2.10
2018-12-03T03:12:54.165Z,2.10
2018-12-03T03:15:23.052Z,2.10
2018-12-03T03:17:52.008Z,2.10
2018-12-03T03:20:20.923Z,2.10
2018-12-03T03:22:49.821Z,2.10
2018-12-03T03:25:18.741Z,2.10
2018-12-03T03:27:47.597Z,2.10
2018-12-03T03:30:16.681Z,2.10
2018-12-03T03:32:45.549Z,2.10
2018-12-03T03:35:15.037Z,2.10
2018-12-03T03:37:43.959Z,2.10
2018-12-03T03:40:17.581Z,2.10
2018-12-03T03:42:47.650Z,2.10
2018-12-03T03:45:20.218Z,2.10
2018-12-03T03:47:49.130Z,2.10
2018-12-03T03:50:18.024Z,2.10
2018-12-03T03:52:46.952Z,2.10
2018-12-03T03:55:15.820Z,2.20
2018-12-03T03:57:44.700Z,2.20
2018-12-03T04:00:14.639Z,2.20
2018-12-03T04:02:43.499Z,2.20
2018-12-03T04:05:14.909Z,2.30
2018-12-03T04:07:45.111Z,2.20
2018-12-03T04:10:14.797Z,2.20
2018-12-03T04:12:44.921Z,2.20
2018-12-03T04:15:14.741Z,2.10
2018-12-03T04:17:43.643Z,2.10
2018-12-03T04:20:18.561Z,2.30
2018-12-03T04:22:53.389Z,2.20
2018-12-03T04:25:22.546Z,2.30
2018-12-03T04:27:51.791Z,2.30
2018-12-03T04:30:21.658Z,2.30
2018-12-03T04:32:51.234Z,2.30
2018-12-03T04:35:20.158Z,2.30
2018-12-03T04:37:49.056Z,2.30
2018-12-03T04:40:18.129Z,2.40
2018-12-03T04:42:46.984Z,2.40
2018-12-03T04:45:16.957Z,2.50
2018-12-03T04:47:46.329Z,2.50
2018-12-03T04:50:17.546Z,2.50
2018-12-03T04:52:47.337Z,2.40
2018-12-03T04:55:17.530Z,2.40
2018-12-03T04:57:46.399Z,2.40
2018-12-03T05:00:17.265Z,2.40
2018-12-03T05:02:47.392Z,2.50
2018-12-03T05:05:16.275Z,2.50
2018-12-03T05:07:45.380Z,2.50
2018-12-03T05:10:20.552Z,2.50
2018-12-03T05:12:50.563Z,2.60
2018-12-03T05:15:19.465Z,2.50
2018-12-03T05:17:48.445Z,2.50
2018-12-03T05:20:25.079Z,2.50
2018-12-03T05:22:54.050Z,2.60
2018-12-03T05:25:22.964Z,2.60
2018-12-03T05:27:51.852Z,2.70
2018-12-03T05:30:20.804Z,2.60
2018-12-03T05:32:49.737Z,2.60
2018-12-03T05:35:21.401Z,2.70
2018-12-03T05:37:50.320Z,2.70
2018-12-03T05:40:20.745Z,2.70
2018-12-03T05:42:50.224Z,2.80
2018-12-03T05:45:19.129Z,2.80
2018-12-03T05:47:48.047Z,2.90
2018-12-03T05:50:17.128Z,2.90
2018-12-03T05:52:47.095Z,3.00
2018-12-03T05:55:16.414Z,3.00
2018-12-03T05:57:46.259Z,3.00
2018-12-03T06:00:18.429Z,2.90
2018-12-03T06:02:47.464Z,3.00
2018-12-03T06:05:16.635Z,2.90
2018-12-03T06:07:45.591Z,3.00
2018-12-03T06:10:16.353Z,3.00
2018-12-03T06:12:45.289Z,3.00
2018-12-03T06:15:17.454Z,3.10
2018-12-03T06:17:47.104Z,3.10
2018-12-03T06:20:19.160Z,3.10
2018-12-03T06:22:48.862Z,3.20
2018-12-03T06:25:21.468Z,3.20
2018-12-03T06:27:50.880Z,3.20
2018-12-03T06:30:21.566Z,3.20
2018-12-03T06:32:50.492Z,3.20
2018-12-03T06:35:19.803Z,3.20
2018-12-03T06:37:49.029Z,3.30
2018-12-03T06:40:22.110Z,3.20
2018-12-03T06:42:51.064Z,3.30
2018-12-03T06:45:21.161Z,3.30
2018-12-03T06:47:56.522Z,3.30
2018-12-03T06:50:25.489Z,3.40
2018-12-03T06:52:54.382Z,3.40
2018-12-03T06:55:23.313Z,3.40
2018-12-03T06:57:52.302Z,3.40
2018-12-03T07:00:22.510Z,3.40
2018-12-03T07:02:51.481Z,3.40
2018-12-03T07:05:20.414Z,3.50
2018-12-03T07:07:50.984Z,3.60
2018-12-03T07:10:20.813Z,3.60
2018-12-03T07:12:54.393Z,3.60
2018-12-03T07:15:23.517Z,3.60
2018-12-03T07:17:55.170Z,3.70
2018-12-03T07:20:24.097Z,3.80
2018-12-03T07:22:53.054Z,3.80
2018-12-03T07:25:22.135Z,3.80
2018-12-03T07:27:51.093Z,3.80
2018-12-03T07:30:24.888Z,3.80
2018-12-03T07:32:54.096Z,3.80
2018-12-03T07:35:23.895Z,3.90
2018-12-03T07:37:54.033Z,3.90
2018-12-03T07:40:22.940Z,3.90
2018-12-03T07:42:51.839Z,3.90
2018-12-03T07:45:21.775Z,3.90
2018-12-03T07:47:50.679Z,3.90
2018-12-03T07:50:20.927Z,3.90
2018-12-03T07:52:49.945Z,3.90
2018-12-03T07:55:20.906Z,3.90
2018-12-03T07:57:54.752Z,3.90
2018-12-03T08:01:02.098Z,3.90
2018-12-03T08:03:31.065Z,4.00
2018-12-03T08:06:00.811Z,4.00
2018-12-03T08:08:31.457Z,4.10
2018-12-03T08:11:01.614Z,4.20
2018-12-03T08:13:30.716Z,4.20
2018-12-03T08:15:59.574Z,4.20
2018-12-03T08:18:28.519Z,4.20
2018-12-03T08:21:00.210Z,4.30
2018-12-03T08:23:41.137Z,4.30
2018-12-03T08:26:10.924Z,4.40
2018-12-03T08:28:39.872Z,4.40
2018-12-03T08:31:08.775Z,4.40
2018-12-03T08:33:37.974Z,4.40
2018-12-03T08:36:08.158Z,4.40
2018-12-03T08:38:37.392Z,4.50
2018-12-03T08:41:07.881Z,4.50
2018-12-03T08:43:36.830Z,4.50
2018-12-03T08:46:08.002Z,4.60
2018-12-03T08:48:38.833Z,4.70
2018-12-03T08:51:08.362Z,4.70
2018-12-03T08:53:37.863Z,4.80
2018-12-03T08:56:07.243Z,4.90
2018-12-03T08:58:36.143Z,5.00
2018-12-03T09:01:09.845Z,5.00
2018-12-03T09:03:38.738Z,5.10
2018-12-03T09:06:10.285Z,5.10
2018-12-03T09:08:39.188Z,5.20
2018-12-03T09:11:10.716Z,5.20
2018-12-03T09:13:39.567Z,5.30
2018-12-03T09:16:08.499Z,5.40
2018-12-03T09:18:39.157Z,5.40
2018-12-03T09:21:13.469Z,5.50
2018-12-03T09:23:43.731Z,5.50
2018-12-03T09:26:13.599Z,5.70
2018-12-03T09:28:42.657Z,5.70
2018-12-03T09:31:21.155Z,5.80
2018-12-03T09:33:54.709Z,5.80
2018-12-03T09:36:24.439Z,5.90
2018-12-03T09:39:16.877Z,6.00
2018-12-03T09:41:47.204Z,6.10
2018-12-03T09:44:16.087Z,6.10
2018-12-03T09:46:44.935Z,6.20
2018-12-03T09:49:13.825Z,6.30
2018-12-03T09:51:42.666Z,6.30
2018-12-03T09:54:12.003Z,6.30
2018-12-03T09:56:43.614Z,6.40
2018-12-03T09:59:17.274Z,6.40
2018-12-03T10:01:47.576Z,6.40
2018-12-03T10:04:21.810Z,6.40
2018-12-03T10:06:50.785Z,6.40
2018-12-03T10:09:19.656Z,6.50
2018-12-03T10:11:48.532Z,6.50
2018-12-03T10:14:19.929Z,6.60
2018-12-03T10:16:48.759Z,6.80
2018-12-03T10:19:17.622Z,6.70
2018-12-03T10:21:47.396Z,6.80
2018-12-03T10:24:16.889Z,6.90
2018-12-03T10:26:46.685Z,6.90
2018-12-03T10:29:17.680Z,7.00
2018-12-03T10:31:46.596Z,7.00
2018-12-03T10:34:18.680Z,7.10
2018-12-03T10:36:51.968Z,7.10
2018-12-03T10:39:25.470Z,7.10
2018-12-03T10:42:28.865Z,7.20
2018-12-03T10:44:57.742Z,7.20
2018-12-03T10:47:26.625Z,7.20
2018-12-03T10:49:55.536Z,7.20
2018-12-03T10:52:25.051Z,7.30
2018-12-03T10:54:54.252Z,7.40
2018-12-03T10:57:24.016Z,7.40
2018-12-03T10:59:55.320Z,7.50
2018-12-03T11:02:37.339Z,7.60
2018-12-03T11:05:13.043Z,7.60
2018-12-03T11:07:42.108Z,7.60
2018-12-03T11:10:11.162Z,7.50
2018-12-03T11:12:40.204Z,7.50
2018-12-03T11:15:14.887Z,7.50
2018-12-03T11:17:43.812Z,7.50
2018-12-03T11:20:12.717Z,7.50
2018-12-03T11:22:41.928Z,7.70
2018-12-03T11:25:14.348Z,7.80
2018-12-03T11:27:45.369Z,7.90
2018-12-03T11:30:14.765Z,7.90
2018-12-03T11:32:43.757Z,7.90
2018-12-03T11:35:13.216Z,7.90
2018-12-03T11:37:44.738Z,7.80
2018-12-03T11:40:25.124Z,7.80
2018-12-03T11:42:55.129Z,7.70
2018-12-03T11:45:23.991Z,7.50
2018-12-03T11:47:52.987Z,7.50
2018-12-03T11:50:21.926Z,7.50
2018-12-03T11:52:50.798Z,7.50
2018-12-03T11:55:19.658Z,7.50
2018-12-03T11:57:48.553Z,7.40
2018-12-03T12:00:17.430Z,7.50
2018-12-03T12:02:46.425Z,7.50
2018-12-03T12:05:15.466Z,7.60
2018-12-03T12:07:44.308Z,7.50
2018-12-03T12:10:13.358Z,7.50
2018-12-03T12:12:42.244Z,7.60
2018-12-03T12:15:12.932Z,7.50
2018-12-03T12:17:41.808Z,7.60
2018-12-03T12:20:11.389Z,7.50
2018-12-03T12:22:40.295Z,7.50
2018-12-03T12:25:12.216Z,7.50
2018-12-03T12:27:43.817Z,7.60
2018-12-03T12:30:14.913Z,7.60
2018-12-03T12:32:43.816Z,7.60
2018-12-03T12:35:12.827Z,7.60
2018-12-03T12:37:41.738Z,7.60
2018-12-03T12:40:12.532Z,7.70
2018-12-03T12:42:42.188Z,7.80
2018-12-03T12:45:15.951Z,8.00
2018-12-03T12:47:44.858Z,8.00
2018-12-03T12:50:16.480Z,8.00
2018-12-03T12:52:45.388Z,8.00
2018-12-03T12:55:14.242Z,8.00
2018-12-03T12:57:43.136Z,8.00
2018-12-03T13:00:18.487Z,8.10
2018-12-03T13:02:49.840Z,8.00
2018-12-03T13:05:18.773Z,8.00
2018-12-03T13:07:47.640Z,7.80
2018-12-03T13:10:17.347Z,7.80
2018-12-03T13:12:49.147Z,7.70
2018-12-03T13:15:18.001Z,7.70
2018-12-03T13:17:47.919Z,7.70
2018-12-03T13:20:18.775Z,7.60
2018-12-03T13:22:47.739Z,7.60
2018-12-03T13:25:18.392Z,7.50
2018-12-03T13:27:48.041Z,7.50
2018-12-03T13:30:17.539Z,7.50
2018-12-03T13:32:47.641Z,7.50
2018-12-03T13:35:16.543Z,7.40
2018-12-03T13:37:45.432Z,7.50
2018-12-03T13:40:17.861Z,7.40
2018-12-03T13:42:47.714Z,7.40
2018-12-03T13:45:19.604Z,7.30
2018-12-03T13:47:48.685Z,7.30
2018-12-03T13:50:17.945Z,7.30
2018-12-03T13:52:46.922Z,7.30
2018-12-03T13:55:18.522Z,7.30
2018-12-03T13:57:47.404Z,7.20
2018-12-03T14:00:21.008Z,7.20
2018-12-03T14:02:55.799Z,7.20
2018-12-03T14:05:25.103Z,7.20
2018-12-03T14:07:59.220Z,7.20
2018-12-03T14:10:39.305Z,7.10
2018-12-03T14:13:17.371Z,7.20
2018-12-03T14:16:01.738Z,7.10
2018-12-03T14:18:35.943Z,7.10
2018-12-03T14:21:11.881Z,7.00
2018-12-03T14:23:40.852Z,6.80
2018-12-03T14:26:09.738Z,6.70
2018-12-03T14:28:38.691Z,6.60
2018-12-03T14:31:07.562Z,6.50
2018-12-03T14:33:36.449Z,6.40
2018-12-03T14:36:05.480Z,6.30
2018-12-03T14:38:34.378Z,6.20
2018-12-03T14:41:03.275Z,6.30
2018-12-03T14:43:32.179Z,6.30
2018-12-03T14:46:01.065Z,6.30
2018-12-03T14:48:29.939Z,6.30
2018-12-03T14:50:58.847Z,6.40
2018-12-03T14:53:27.771Z,6.40
2018-12-03T14:55:56.648Z,6.40
2018-12-03T14:58:25.986Z,6.50
2018-12-03T15:00:55.779Z,6.40
2018-12-03T15:03:24.641Z,6.30
2018-12-03T15:05:53.499Z,6.30
2018-12-03T15:08:22.404Z,6.30
2018-12-03T15:10:51.293Z,6.40
2018-12-03T15:13:20.553Z,6.40
2018-12-03T15:15:49.420Z,6.40
2018-12-03T15:18:18.344Z,6.40
2018-12-03T15:20:50.332Z,6.40
2018-12-03T15:23:19.191Z,6.40
2018-12-03T15:25:48.491Z,6.50
2018-12-03T15:28:17.382Z,6.50
2018-12-03T15:30:46.266Z,6.50
2018-12-03T15:33:15.117Z,6.50
2018-12-03T15:35:44.029Z,6.60
2018-12-03T15:38:12.945Z,6.50
2018-12-03T15:40:41.802Z,6.50
2018-12-03T15:43:10.722Z,6.50
2018-12-03T15:45:39.580Z,6.50
2018-12-03T15:48:08.447Z,6.50
2018-12-03T15:50:37.392Z,6.50
2018-12-03T15:53:06.243Z,6.50
2018-12-03T15:55:35.128Z,6.50
2018-12-03T15:58:04.046Z,6.50
2018-12-03T16:00:32.965Z,6.50
2018-12-03T16:03:01.861Z,6.50
2018-12-03T16:05:30.731Z,6.50
2018-12-03T16:07:59.599Z,6.50
2018-12-03T16:10:28.754Z,6.40
2018-12-03T16:12:57.653Z,6.40
2018-12-03T16:15:26.896Z,6.40
2018-12-03T16:17:56.513Z,6.40
2018-12-03T16:20:25.408Z,6.40
2018-12-03T16:22:54.869Z,6.40
2018-12-03T16:25:23.799Z,6.40
2018-12-03T16:27:52.672Z,6.40
2018-12-03T16:30:23.099Z,6.40
2018-12-03T16:32:52.102Z,6.40
2018-12-03T16:35:21.112Z,6.40
2018-12-03T16:37:50.105Z,6.40
2018-12-03T16:40:19.496Z,6.40
2018-12-03T16:42:48.419Z,6.40
2018-12-03T16:45:17.350Z,6.40
2018-12-03T16:47:46.263Z,6.40
2018-12-03T16:50:15.133Z,6.40
2018-12-03T16:52:44.504Z,6.40
2018-12-03T16:55:13.767Z,6.40
2018-12-03T16:57:42.636Z,6.50
2018-12-03T17:00:13.691Z,6.50
2018-12-03T17:02:42.667Z,6.50
2018-12-03T17:05:11.675Z,6.60
2018-12-03T17:07:40.677Z,6.50
2018-12-03T17:10:12.348Z,6.50
2018-12-03T17:12:41.320Z,6.50
2018-12-03T17:15:11.283Z,6.50
2018-12-03T17:17:40.218Z,6.60
2018-12-03T17:20:16.258Z,6.50
2018-12-03T17:22:50.675Z,6.50
2018-12-03T17:25:22.742Z,6.50
2018-12-03T17:27:51.733Z,6.50
2018-12-03T17:30:20.657Z,6.50
2018-12-03T17:32:49.527Z,6.50
2018-12-03T17:35:19.143Z,6.50
2018-12-03T17:37:48.095Z,6.50
2018-12-03T17:40:17.020Z,6.50
2018-12-03T17:42:45.943Z,6.50
2018-12-03T17:45:14.891Z,6.50
2018-12-03T17:47:43.786Z,6.50
2018-12-03T17:50:12.827Z,6.50
2018-12-03T17:52:41.771Z,6.60
2018-12-03T17:55:10.771Z,6.50
2018-12-03T17:57:40.044Z,6.50
2018-12-03T18:00:13.302Z,6.50
2018-12-03T18:02:42.301Z,6.50
2018-12-03T18:05:11.267Z,6.50
2018-12-03T18:07:40.151Z,6.50
2018-12-03T18:10:11.016Z,6.40
2018-12-03T18:12:40.318Z,6.40
2018-12-03T18:15:10.223Z,6.40
2018-12-03T18:17:39.362Z,6.40
2018-12-03T18:20:09.916Z,6.40
2018-12-03T18:22:39.752Z,6.40
2018-12-03T18:25:09.305Z,6.40
2018-12-03T18:27:38.229Z,6.40
2018-12-03T18:30:08.924Z,6.40
2018-12-03T18:32:37.930Z,6.40
2018-12-03T18:35:07.539Z,6.30
2018-12-03T18:37:36.767Z,6.30
2018-12-03T18:40:07.035Z,6.30
2018-12-03T18:42:36.161Z,6.40
2018-12-03T18:45:06.308Z,6.40
2018-12-03T18:47:35.644Z,6.30
2018-12-03T18:50:15.636Z,6.30
2018-12-03T18:52:44.578Z,6.40
2018-12-03T18:55:13.488Z,6.30
2018-12-03T18:57:43.752Z,6.30
2018-12-03T19:00:14.614Z,6.30
2018-12-03T19:02:43.544Z,6.30
2018-12-03T19:05:12.551Z,6.30
2018-12-03T19:07:41.481Z,6.30
2018-12-03T19:10:10.406Z,6.30
2018-12-03T19:12:39.290Z,6.30
2018-12-03T19:15:08.187Z,6.30
2018-12-03T19:17:37.637Z,6.30
2018-12-03T19:20:08.568Z,6.30
2018-12-03T19:22:37.799Z,6.40
2018-12-03T19:25:07.787Z,6.40
2018-12-03T19:27:36.881Z,6.40
2018-12-03T19:30:09.040Z,6.40
2018-12-03T19:32:37.920Z,6.40
2018-12-03T19:35:07.031Z,6.30
2018-12-03T19:37:35.988Z,6.40
2018-12-03T19:40:05.870Z,6.40
2018-12-03T19:42:34.898Z,6.40
2018-12-03T19:45:04.125Z,6.40
2018-12-03T19:47:33.027Z,6.40
2018-12-03T19:50:02.080Z,6.40
2018-12-03T19:52:31.020Z,6.40
2018-12-03T19:55:00.411Z,6.40
2018-12-03T19:57:33.479Z,6.50
2018-12-03T20:00:02.458Z,6.50
2018-12-03T20:02:31.352Z,6.60
2018-12-03T20:05:04.469Z,6.50
2018-12-03T20:07:33.432Z,6.50
2018-12-03T20:10:02.344Z,6.50
2018-12-03T20:12:32.120Z,6.60
2018-12-03T20:15:01.068Z,6.50
2018-12-03T20:17:34.797Z,6.50
2018-12-03T20:20:04.664Z,6.50
2018-12-03T20:22:42.422Z,6.50
2018-12-03T20:25:14.055Z,6.50
2018-12-03T20:27:54.211Z,6.50
2018-12-03T20:30:47.538Z,6.50
2018-12-03T20:33:19.934Z,6.60
2018-12-03T20:38:33.128Z,6.60
2018-12-03T20:41:08.455Z,6.60
2018-12-03T20:43:38.677Z,6.60
2018-12-03T20:46:33.015Z,6.60
2018-12-03T20:49:14.085Z,6.50
2018-12-03T20:51:43.481Z,6.60
2018-12-03T20:54:12.435Z,6.60
2018-12-03T20:56:41.384Z,6.60
2018-12-03T20:59:10.232Z,6.60
2018-12-03T21:01:42.878Z,6.60
2018-12-03T21:04:11.836Z,6.60
2018-12-03T21:06:40.764Z,6.70
2018-12-03T21:09:09.622Z,6.70
2018-12-03T21:11:39.184Z,6.70
2018-12-03T21:14:08.098Z,6.70
2018-12-03T21:16:36.958Z,6.70
2018-12-03T21:19:05.848Z,6.70
2018-12-03T21:21:34.761Z,6.80
2018-12-03T21:24:03.915Z,6.80
2018-12-03T21:26:32.988Z,6.80
2018-12-03T21:29:01.853Z,6.80
2018-12-03T21:31:30.879Z,6.80
2018-12-03T21:34:00.600Z,6.80
2018-12-03T21:36:29.491Z,6.90
2018-12-03T21:38:58.360Z,7.00
2018-12-03T21:41:27.293Z,7.00
2018-12-03T21:43:56.119Z,7.00
2018-12-03T21:46:25.007Z,7.00
2018-12-03T21:48:54.153Z,7.00
2018-12-03T21:51:23.029Z,7.00
2018-12-03T21:53:51.937Z,7.00
2018-12-03T21:56:20.971Z,7.00
2018-12-03T21:58:49.859Z,7.00
2018-12-03T22:01:18.748Z,7.00
2018-12-03T22:03:47.686Z,7.00
2018-12-03T22:06:16.574Z,7.00
2018-12-03T22:08:45.780Z,7.00
2018-12-03T22:11:14.729Z,7.00
2018-12-03T22:13:43.589Z,7.00
2018-12-03T22:16:12.574Z,7.00
2018-12-03T22:18:43.400Z,7.00
2018-12-03T22:21:12.331Z,7.00
2018-12-03T22:23:41.233Z,7.00
2018-12-03T22:26:10.174Z,7.00
2018-12-03T22:28:39.116Z,7.10
2018-12-03T22:31:07.994Z,7.10
2018-12-03T22:33:36.891Z,7.00
2018-12-03T22:36:05.762Z,7.00
2018-12-03T22:38:34.647Z,7.00
2018-12-03T22:41:03.551Z,7.00
2018-12-03T22:43:32.388Z,6.90
2018-12-03T22:46:01.234Z,6.80
2018-12-03T22:48:30.133Z,6.70
2018-12-03T22:50:58.981Z,6.70
2018-12-03T22:53:27.857Z,6.70
2018-12-03T22:55:56.822Z,6.60
2018-12-03T22:58:25.706Z,6.60
2018-12-03T23:01:01.763Z,6.60
2018-12-03T23:03:30.620Z,6.60
2018-12-03T23:05:59.547Z,6.70
2018-12-03T23:08:28.451Z,6.70
2018-12-03T23:10:57.310Z,6.70
2018-12-03T23:13:26.203Z,6.70
2018-12-03T23:15:55.112Z,6.60
2018-12-03T23:18:23.979Z,6.50
2018-12-03T23:20:52.858Z,6.50
2018-12-03T23:23:21.800Z,6.50
2018-12-03T23:25:51.101Z,6.40
2018-12-03T23:28:19.973Z,6.50
2018-12-03T23:30:48.908Z,6.60
2018-12-03T23:33:17.747Z,6.50
2018-12-03T23:35:46.676Z,6.50
2018-12-03T23:38:15.613Z,6.40
2018-12-03T23:40:44.519Z,6.50
2018-12-03T23:43:13.453Z,6.50
2018-12-03T23:45:42.390Z,6.50
2018-12-03T23:48:11.415Z,6.50
2018-12-03T23:50:40.420Z,6.50
2018-12-03T23:53:09.303Z,6.50
2018-12-03T23:55:38.371Z,6.40
2018-12-03T23:58:07.309Z,6.40
